sensor_id;sensor_type;location;lat;lon;timestamp;temperature;humidity
24144;DHT22;12307;50.828;6.080;2022-10-17T00:00:07;22.30;65.30
24144;DHT22;12307;50.828;6.080;2022-10-17T00:02:34;22.30;65.30
24144;DHT22;12307;50.828;6.080;2022-10-17T00:04:59;22.30;65.50
24144;DHT22;12307;50.828;6.080;2022-10-17T00:07:25;22.30;65.40
24144;DHT22;12307;50.828;6.080;2022-10-17T00:09:51;22.30;65.30
24144;DHT22;12307;50.828;6.080;2022-10-17T00:12:16;22.30;65.50
24144;DHT22;12307;50.828;6.080;2022-10-17T00:14:42;22.30;65.50
24144;DHT22;12307;50.828;6.080;2022-10-17T00:17:08;22.30;65.50
24144;DHT22;12307;50.828;6.080;2022-10-17T00:19:35;22.30;65.50
24144;DHT22;12307;50.828;6.080;2022-10-17T00:22:00;22.30;65.40
24144;DHT22;12307;50.828;6.080;2022-10-17T00:24:26;22.30;65.50
24144;DHT22;12307;50.828;6.080;2022-10-17T00:26:51;22.30;65.50
24144;DHT22;12307;50.828;6.080;2022-10-17T00:29:17;22.30;65.60
24144;DHT22;12307;50.828;6.080;2022-10-17T00:31:43;22.30;65.60
24144;DHT22;12307;50.828;6.080;2022-10-17T00:34:08;22.30;65.50
24144;DHT22;12307;50.828;6.080;2022-10-17T00:36:35;22.30;65.60
24144;DHT22;12307;50.828;6.080;2022-10-17T00:39:02;22.30;65.50
24144;DHT22;12307;50.828;6.080;2022-10-17T00:41:30;22.30;65.50
24144;DHT22;12307;50.828;6.080;2022-10-17T00:43:59;22.30;65.60
24144;DHT22;12307;50.828;6.080;2022-10-17T00:46:26;22.30;65.60
24144;DHT22;12307;50.828;6.080;2022-10-17T00:48:53;22.30;65.60
24144;DHT22;12307;50.828;6.080;2022-10-17T00:51:23;22.30;65.60
24144;DHT22;12307;50.828;6.080;2022-10-17T00:53:52;22.30;65.50
24144;DHT22;12307;50.828;6.080;2022-10-17T00:56:18;22.30;65.60
24144;DHT22;12307;50.828;6.080;2022-10-17T00:58:44;22.30;65.60
24144;DHT22;12307;50.828;6.080;2022-10-17T01:01:10;22.30;65.60
24144;DHT22;12307;50.828;6.080;2022-10-17T01:03:35;22.30;65.60
24144;DHT22;12307;50.828;6.080;2022-10-17T01:06:01;22.30;65.60
24144;DHT22;12307;50.828;6.080;2022-10-17T01:08:27;22.30;65.50
24144;DHT22;12307;50.828;6.080;2022-10-17T01:11:00;22.30;65.60
24144;DHT22;12307;50.828;6.080;2022-10-17T01:13:33;22.30;65.60
24144;DHT22;12307;50.828;6.080;2022-10-17T01:16:07;22.30;65.60
24144;DHT22;12307;50.828;6.080;2022-10-17T01:18:43;22.30;65.60
24144;DHT22;12307;50.828;6.080;2022-10-17T01:24:36;22.30;65.60
24144;DHT22;12307;50.828;6.080;2022-10-17T01:27:23;22.30;65.60
24144;DHT22;12307;50.828;6.080;2022-10-17T01:30:02;22.30;65.60
24144;DHT22;12307;50.828;6.080;2022-10-17T01:32:34;22.30;65.60
24144;DHT22;12307;50.828;6.080;2022-10-17T01:35:08;22.30;65.60
24144;DHT22;12307;50.828;6.080;2022-10-17T01:37:41;22.30;65.60
24144;DHT22;12307;50.828;6.080;2022-10-17T01:40:11;22.30;65.60
24144;DHT22;12307;50.828;6.080;2022-10-17T01:42:44;22.30;65.60
24144;DHT22;12307;50.828;6.080;2022-10-17T01:45:13;22.30;65.70
24144;DHT22;12307;50.828;6.080;2022-10-17T01:47:42;22.30;65.60
24144;DHT22;12307;50.828;6.080;2022-10-17T01:50:13;22.30;65.60
24144;DHT22;12307;50.828;6.080;2022-10-17T01:52:43;22.30;65.60
24144;DHT22;12307;50.828;6.080;2022-10-17T01:55:13;22.30;65.60
24144;DHT22;12307;50.828;6.080;2022-10-17T01:57:41;22.30;65.70
24144;DHT22;12307;50.828;6.080;2022-10-17T02:00:12;22.30;65.60
24144;DHT22;12307;50.828;6.080;2022-10-17T02:02:42;22.30;65.70
24144;DHT22;12307;50.828;6.080;2022-10-17T02:05:09;22.30;65.70
24144;DHT22;12307;50.828;6.080;2022-10-17T02:07:34;22.30;65.70
24144;DHT22;12307;50.828;6.080;2022-10-17T02:10:00;22.30;65.60
24144;DHT22;12307;50.828;6.080;2022-10-17T02:12:34;22.30;65.70
24144;DHT22;12307;50.828;6.080;2022-10-17T02:15:27;22.30;65.70
24144;DHT22;12307;50.828;6.080;2022-10-17T02:18:02;22.30;65.70
24144;DHT22;12307;50.828;6.080;2022-10-17T02:20:34;22.30;65.70
24144;DHT22;12307;50.828;6.080;2022-10-17T02:23:07;22.30;65.70
24144;DHT22;12307;50.828;6.080;2022-10-17T02:25:38;22.30;65.70
24144;DHT22;12307;50.828;6.080;2022-10-17T02:28:17;22.30;65.70
24144;DHT22;12307;50.828;6.080;2022-10-17T02:30:49;22.30;65.70
24144;DHT22;12307;50.828;6.080;2022-10-17T02:33:20;22.30;65.70
24144;DHT22;12307;50.828;6.080;2022-10-17T02:35:52;22.30;65.70
24144;DHT22;12307;50.828;6.080;2022-10-17T02:38:18;22.30;65.70
24144;DHT22;12307;50.828;6.080;2022-10-17T02:40:45;22.30;65.70
24144;DHT22;12307;50.828;6.080;2022-10-17T02:43:15;22.30;65.70
24144;DHT22;12307;50.828;6.080;2022-10-17T02:45:41;22.30;65.70
24144;DHT22;12307;50.828;6.080;2022-10-17T02:48:10;22.30;65.70
24144;DHT22;12307;50.828;6.080;2022-10-17T02:50:45;22.30;65.80
24144;DHT22;12307;50.828;6.080;2022-10-17T02:53:14;22.30;65.80
24144;DHT22;12307;50.828;6.080;2022-10-17T02:55:47;22.30;65.90
24144;DHT22;12307;50.828;6.080;2022-10-17T02:58:18;22.30;65.90
24144;DHT22;12307;50.828;6.080;2022-10-17T03:00:45;22.30;65.90
24144;DHT22;12307;50.828;6.080;2022-10-17T03:03:19;22.30;65.90
24144;DHT22;12307;50.828;6.080;2022-10-17T03:05:47;22.30;65.80
24144;DHT22;12307;50.828;6.080;2022-10-17T03:08:12;22.30;65.90
24144;DHT22;12307;50.828;6.080;2022-10-17T03:10:38;22.30;65.90
24144;DHT22;12307;50.828;6.080;2022-10-17T03:13:04;22.30;66.00
24144;DHT22;12307;50.828;6.080;2022-10-17T03:15:29;22.30;65.90
24144;DHT22;12307;50.828;6.080;2022-10-17T03:17:55;22.30;66.00
24144;DHT22;12307;50.828;6.080;2022-10-17T03:20:20;22.30;65.90
24144;DHT22;12307;50.828;6.080;2022-10-17T03:22:48;22.30;65.90
24144;DHT22;12307;50.828;6.080;2022-10-17T03:25:13;22.20;65.90
24144;DHT22;12307;50.828;6.080;2022-10-17T03:27:39;22.30;65.90
24144;DHT22;12307;50.828;6.080;2022-10-17T03:30:06;22.30;65.90
24144;DHT22;12307;50.828;6.080;2022-10-17T03:32:32;22.30;66.00
24144;DHT22;12307;50.828;6.080;2022-10-17T03:34:58;22.30;66.00
24144;DHT22;12307;50.828;6.080;2022-10-17T03:37:24;22.30;66.00
24144;DHT22;12307;50.828;6.080;2022-10-17T03:39:51;22.20;66.00
24144;DHT22;12307;50.828;6.080;2022-10-17T03:42:17;22.30;66.10
24144;DHT22;12307;50.828;6.080;2022-10-17T03:44:43;22.20;66.00
24144;DHT22;12307;50.828;6.080;2022-10-17T03:47:08;22.30;66.10
24144;DHT22;12307;50.828;6.080;2022-10-17T03:49:34;22.20;66.00
24144;DHT22;12307;50.828;6.080;2022-10-17T03:52:00;22.30;66.10
24144;DHT22;12307;50.828;6.080;2022-10-17T03:54:25;22.30;66.00
24144;DHT22;12307;50.828;6.080;2022-10-17T03:56:52;22.30;66.10
24144;DHT22;12307;50.828;6.080;2022-10-17T03:59:18;22.30;66.10
24144;DHT22;12307;50.828;6.080;2022-10-17T04:01:44;22.20;66.00
24144;DHT22;12307;50.828;6.080;2022-10-17T04:04:09;22.30;66.20
24144;DHT22;12307;50.828;6.080;2022-10-17T04:06:36;22.30;66.10
24144;DHT22;12307;50.828;6.080;2022-10-17T04:09:02;22.20;66.10
24144;DHT22;12307;50.828;6.080;2022-10-17T04:11:28;22.20;66.20
24144;DHT22;12307;50.828;6.080;2022-10-17T04:13:56;22.20;66.10
24144;DHT22;12307;50.828;6.080;2022-10-17T04:16:22;22.20;66.10
24144;DHT22;12307;50.828;6.080;2022-10-17T04:18:52;22.20;66.00
24144;DHT22;12307;50.828;6.080;2022-10-17T04:21:18;22.20;66.00
24144;DHT22;12307;50.828;6.080;2022-10-17T04:23:44;22.30;66.10
24144;DHT22;12307;50.828;6.080;2022-10-17T04:26:09;22.20;66.20
24144;DHT22;12307;50.828;6.080;2022-10-17T04:28:35;22.20;66.10
24144;DHT22;12307;50.828;6.080;2022-10-17T04:31:04;22.20;66.20
24144;DHT22;12307;50.828;6.080;2022-10-17T04:33:32;22.20;66.10
24144;DHT22;12307;50.828;6.080;2022-10-17T04:35:59;22.20;66.10
24144;DHT22;12307;50.828;6.080;2022-10-17T04:38:25;22.20;66.20
24144;DHT22;12307;50.828;6.080;2022-10-17T04:40:51;22.20;66.20
24144;DHT22;12307;50.828;6.080;2022-10-17T04:43:17;22.20;66.00
24144;DHT22;12307;50.828;6.080;2022-10-17T04:45:43;22.20;66.10
24144;DHT22;12307;50.828;6.080;2022-10-17T04:48:10;22.20;66.10
24144;DHT22;12307;50.828;6.080;2022-10-17T04:50:35;22.20;66.20
24144;DHT22;12307;50.828;6.080;2022-10-17T04:53:01;22.20;66.10
24144;DHT22;12307;50.828;6.080;2022-10-17T04:55:27;22.20;66.10
24144;DHT22;12307;50.828;6.080;2022-10-17T04:57:52;22.20;66.20
24144;DHT22;12307;50.828;6.080;2022-10-17T05:00:19;22.20;66.20
24144;DHT22;12307;50.828;6.080;2022-10-17T05:02:45;22.20;66.20
24144;DHT22;12307;50.828;6.080;2022-10-17T05:05:12;22.20;66.00
24144;DHT22;12307;50.828;6.080;2022-10-17T05:07:38;22.20;66.00
24144;DHT22;12307;50.828;6.080;2022-10-17T05:10:05;22.20;66.10
24144;DHT22;12307;50.828;6.080;2022-10-17T05:12:31;22.20;66.20
24144;DHT22;12307;50.828;6.080;2022-10-17T05:14:56;22.20;66.10
24144;DHT22;12307;50.828;6.080;2022-10-17T05:17:22;22.20;66.20
24144;DHT22;12307;50.828;6.080;2022-10-17T05:19:48;22.20;66.00
24144;DHT22;12307;50.828;6.080;2022-10-17T05:22:18;22.20;66.00
24144;DHT22;12307;50.828;6.080;2022-10-17T05:24:44;22.20;66.00
24144;DHT22;12307;50.828;6.080;2022-10-17T05:27:09;22.20;66.00
24144;DHT22;12307;50.828;6.080;2022-10-17T05:29:35;22.20;66.00
24144;DHT22;12307;50.828;6.080;2022-10-17T05:32:01;22.20;66.00
24144;DHT22;12307;50.828;6.080;2022-10-17T05:34:26;22.20;66.00
24144;DHT22;12307;50.828;6.080;2022-10-17T05:36:52;22.20;66.00
24144;DHT22;12307;50.828;6.080;2022-10-17T05:39:19;22.20;66.00
24144;DHT22;12307;50.828;6.080;2022-10-17T05:41:45;22.20;66.00
24144;DHT22;12307;50.828;6.080;2022-10-17T05:44:11;22.20;66.00
24144;DHT22;12307;50.828;6.080;2022-10-17T05:46:37;22.20;66.00
24144;DHT22;12307;50.828;6.080;2022-10-17T05:49:03;22.20;66.10
24144;DHT22;12307;50.828;6.080;2022-10-17T05:51:29;22.20;66.00
24144;DHT22;12307;50.828;6.080;2022-10-17T05:53:54;22.20;66.00
24144;DHT22;12307;50.828;6.080;2022-10-17T05:56:21;22.20;66.00
24144;DHT22;12307;50.828;6.080;2022-10-17T05:58:47;22.20;66.00
24144;DHT22;12307;50.828;6.080;2022-10-17T06:01:13;22.20;66.00
24144;DHT22;12307;50.828;6.080;2022-10-17T06:03:39;22.20;66.90
24144;DHT22;12307;50.828;6.080;2022-10-17T06:06:07;22.20;65.90
24144;DHT22;12307;50.828;6.080;2022-10-17T06:08:33;22.20;66.00
24144;DHT22;12307;50.828;6.080;2022-10-17T06:10:59;22.20;65.90
24144;DHT22;12307;50.828;6.080;2022-10-17T06:13:26;22.20;65.90
24144;DHT22;12307;50.828;6.080;2022-10-17T06:15:52;22.20;65.90
24144;DHT22;12307;50.828;6.080;2022-10-17T06:18:18;22.20;65.90
24144;DHT22;12307;50.828;6.080;2022-10-17T06:20:43;22.20;66.00
24144;DHT22;12307;50.828;6.080;2022-10-17T06:23:09;22.20;66.00
24144;DHT22;12307;50.828;6.080;2022-10-17T06:25:35;22.20;65.90
24144;DHT22;12307;50.828;6.080;2022-10-17T06:28:01;22.20;66.00
24144;DHT22;12307;50.828;6.080;2022-10-17T06:30:28;22.30;65.90
24144;DHT22;12307;50.828;6.080;2022-10-17T06:32:53;22.20;65.90
24144;DHT22;12307;50.828;6.080;2022-10-17T06:35:19;22.20;65.90
24144;DHT22;12307;50.828;6.080;2022-10-17T06:37:45;22.30;66.00
24144;DHT22;12307;50.828;6.080;2022-10-17T06:40:11;22.20;66.00
24144;DHT22;12307;50.828;6.080;2022-10-17T06:42:39;22.30;66.10
24144;DHT22;12307;50.828;6.080;2022-10-17T06:45:07;22.30;66.20
24144;DHT22;12307;50.828;6.080;2022-10-17T06:47:35;22.30;66.10
24144;DHT22;12307;50.828;6.080;2022-10-17T06:50:01;22.30;66.10
24144;DHT22;12307;50.828;6.080;2022-10-17T06:52:27;22.30;66.30
24144;DHT22;12307;50.828;6.080;2022-10-17T06:54:52;22.30;66.10
24144;DHT22;12307;50.828;6.080;2022-10-17T06:57:18;22.30;66.20
24144;DHT22;12307;50.828;6.080;2022-10-17T06:59:44;22.30;66.20
24144;DHT22;12307;50.828;6.080;2022-10-17T07:02:10;22.30;66.50
24144;DHT22;12307;50.828;6.080;2022-10-17T07:04:37;22.30;66.50
24144;DHT22;12307;50.828;6.080;2022-10-17T07:07:03;22.30;66.40
24144;DHT22;12307;50.828;6.080;2022-10-17T07:09:29;22.40;66.80
24144;DHT22;12307;50.828;6.080;2022-10-17T07:11:55;22.30;66.50
24144;DHT22;12307;50.828;6.080;2022-10-17T07:14:21;22.40;66.60
24144;DHT22;12307;50.828;6.080;2022-10-17T07:16:47;22.40;66.90
24144;DHT22;12307;50.828;6.080;2022-10-17T07:19:13;22.40;66.80
24144;DHT22;12307;50.828;6.080;2022-10-17T07:21:40;22.40;66.90
24144;DHT22;12307;50.828;6.080;2022-10-17T07:24:05;22.40;66.80
24144;DHT22;12307;50.828;6.080;2022-10-17T07:26:32;22.40;66.90
24144;DHT22;12307;50.828;6.080;2022-10-17T07:28:58;22.40;66.80
24144;DHT22;12307;50.828;6.080;2022-10-17T07:31:23;22.40;66.90
24144;DHT22;12307;50.828;6.080;2022-10-17T07:33:49;22.50;67.40
24144;DHT22;12307;50.828;6.080;2022-10-17T07:36:16;22.50;67.30
24144;DHT22;12307;50.828;6.080;2022-10-17T07:38:43;22.50;67.10
24144;DHT22;12307;50.828;6.080;2022-10-17T07:41:10;22.50;67.30
24144;DHT22;12307;50.828;6.080;2022-10-17T07:43:37;22.50;67.50
24144;DHT22;12307;50.828;6.080;2022-10-17T07:46:04;22.50;67.70
24144;DHT22;12307;50.828;6.080;2022-10-17T07:48:30;22.60;67.80
24144;DHT22;12307;50.828;6.080;2022-10-17T07:50:56;22.60;67.90
24144;DHT22;12307;50.828;6.080;2022-10-17T07:53:22;22.70;67.70
24144;DHT22;12307;50.828;6.080;2022-10-17T07:55:49;22.70;67.10
24144;DHT22;12307;50.828;6.080;2022-10-17T07:58:16;22.70;66.90
24144;DHT22;12307;50.828;6.080;2022-10-17T08:00:41;22.80;66.70
24144;DHT22;12307;50.828;6.080;2022-10-17T08:03:09;22.80;66.90
24144;DHT22;12307;50.828;6.080;2022-10-17T08:05:35;22.80;66.80
24144;DHT22;12307;50.828;6.080;2022-10-17T08:08:00;22.80;67.00
24144;DHT22;12307;50.828;6.080;2022-10-17T08:10:26;22.90;66.90
24144;DHT22;12307;50.828;6.080;2022-10-17T08:12:55;22.90;67.00
24144;DHT22;12307;50.828;6.080;2022-10-17T08:15:22;22.90;67.00
24144;DHT22;12307;50.828;6.080;2022-10-17T08:17:48;22.90;66.90
24144;DHT22;12307;50.828;6.080;2022-10-17T08:20:14;23.00;67.10
24144;DHT22;12307;50.828;6.080;2022-10-17T08:22:40;23.00;67.00
24144;DHT22;12307;50.828;6.080;2022-10-17T08:25:06;23.00;67.20
24144;DHT22;12307;50.828;6.080;2022-10-17T08:27:33;23.00;67.10
24144;DHT22;12307;50.828;6.080;2022-10-17T08:30:00;23.10;67.20
24144;DHT22;12307;50.828;6.080;2022-10-17T08:32:27;23.10;67.10
24144;DHT22;12307;50.828;6.080;2022-10-17T08:34:54;23.10;67.10
24144;DHT22;12307;50.828;6.080;2022-10-17T08:37:20;23.20;67.10
24144;DHT22;12307;50.828;6.080;2022-10-17T08:39:46;23.20;67.10
24144;DHT22;12307;50.828;6.080;2022-10-17T08:42:28;23.30;67.00
24144;DHT22;12307;50.828;6.080;2022-10-17T08:45:10;23.40;66.80
24144;DHT22;12307;50.828;6.080;2022-10-17T08:47:42;23.50;66.50
24144;DHT22;12307;50.828;6.080;2022-10-17T08:50:13;23.60;66.20
24144;DHT22;12307;50.828;6.080;2022-10-17T08:52:43;23.60;65.70
24144;DHT22;12307;50.828;6.080;2022-10-17T08:55:14;23.70;66.00
24144;DHT22;12307;50.828;6.080;2022-10-17T08:57:41;23.70;66.30
24144;DHT22;12307;50.828;6.080;2022-10-17T09:00:14;23.70;66.50
24144;DHT22;12307;50.828;6.080;2022-10-17T09:02:49;23.70;67.20
24144;DHT22;12307;50.828;6.080;2022-10-17T09:05:33;23.60;67.10
24144;DHT22;12307;50.828;6.080;2022-10-17T09:08:09;23.60;67.80
24144;DHT22;12307;50.828;6.080;2022-10-17T09:10:46;23.60;68.40
24144;DHT22;12307;50.828;6.080;2022-10-17T09:13:23;23.60;67.70
24144;DHT22;12307;50.828;6.080;2022-10-17T09:16:07;23.60;67.90
24144;DHT22;12307;50.828;6.080;2022-10-17T09:18:37;23.50;67.90
24144;DHT22;12307;50.828;6.080;2022-10-17T09:21:14;23.60;67.20
24144;DHT22;12307;50.828;6.080;2022-10-17T09:23:45;23.50;66.90
24144;DHT22;12307;50.828;6.080;2022-10-17T09:26:11;23.50;67.00
24144;DHT22;12307;50.828;6.080;2022-10-17T09:28:39;23.50;66.90
24144;DHT22;12307;50.828;6.080;2022-10-17T09:31:11;23.40;67.00
24144;DHT22;12307;50.828;6.080;2022-10-17T09:33:39;23.40;67.10
24144;DHT22;12307;50.828;6.080;2022-10-17T09:36:10;23.40;67.40
24144;DHT22;12307;50.828;6.080;2022-10-17T09:38:40;23.40;67.30
24144;DHT22;12307;50.828;6.080;2022-10-17T09:41:12;23.30;67.40
24144;DHT22;12307;50.828;6.080;2022-10-17T09:43:40;23.30;67.50
24144;DHT22;12307;50.828;6.080;2022-10-17T09:46:10;23.30;67.20
24144;DHT22;12307;50.828;6.080;2022-10-17T09:48:40;23.30;68.20
24144;DHT22;12307;50.828;6.080;2022-10-17T09:51:07;23.20;67.50
24144;DHT22;12307;50.828;6.080;2022-10-17T09:53:35;23.20;67.60
24144;DHT22;12307;50.828;6.080;2022-10-17T09:56:07;23.30;67.60
24144;DHT22;12307;50.828;6.080;2022-10-17T09:58:41;23.20;68.10
24144;DHT22;12307;50.828;6.080;2022-10-17T10:01:22;23.20;67.40
24144;DHT22;12307;50.828;6.080;2022-10-17T10:06:31;23.20;68.00
24144;DHT22;12307;50.828;6.080;2022-10-17T10:08:57;23.20;67.80
24144;DHT22;12307;50.828;6.080;2022-10-17T10:11:25;23.20;68.20
24144;DHT22;12307;50.828;6.080;2022-10-17T10:14:11;23.20;68.00
24144;DHT22;12307;50.828;6.080;2022-10-17T10:16:42;23.20;68.30
24144;DHT22;12307;50.828;6.080;2022-10-17T10:19:19;23.10;68.40
24144;DHT22;12307;50.828;6.080;2022-10-17T10:21:54;23.10;68.40
24144;DHT22;12307;50.828;6.080;2022-10-17T10:24:20;23.10;68.70
24144;DHT22;12307;50.828;6.080;2022-10-17T10:26:49;23.10;68.20
24144;DHT22;12307;50.828;6.080;2022-10-17T10:29:21;23.10;68.40
24144;DHT22;12307;50.828;6.080;2022-10-17T10:31:51;23.10;68.20
24144;DHT22;12307;50.828;6.080;2022-10-17T10:34:20;23.10;68.40
24144;DHT22;12307;50.828;6.080;2022-10-17T10:36:56;23.10;68.50
24144;DHT22;12307;50.828;6.080;2022-10-17T10:39:43;23.00;68.60
24144;DHT22;12307;50.828;6.080;2022-10-17T10:42:20;23.10;68.80
24144;DHT22;12307;50.828;6.080;2022-10-17T10:44:47;23.10;69.00
24144;DHT22;12307;50.828;6.080;2022-10-17T10:47:19;23.10;69.00
24144;DHT22;12307;50.828;6.080;2022-10-17T10:49:45;23.10;68.90
24144;DHT22;12307;50.828;6.080;2022-10-17T10:52:17;23.10;68.90
24144;DHT22;12307;50.828;6.080;2022-10-17T10:54:52;23.00;68.60
24144;DHT22;12307;50.828;6.080;2022-10-17T10:57:21;23.10;68.60
24144;DHT22;12307;50.828;6.080;2022-10-17T10:59:54;23.10;68.60
24144;DHT22;12307;50.828;6.080;2022-10-17T11:02:29;23.10;68.60
24144;DHT22;12307;50.828;6.080;2022-10-17T11:05:00;23.20;68.60
24144;DHT22;12307;50.828;6.080;2022-10-17T11:07:30;23.20;68.60
24144;DHT22;12307;50.828;6.080;2022-10-17T11:10:02;23.20;69.10
24144;DHT22;12307;50.828;6.080;2022-10-17T11:12:33;23.30;69.10
24144;DHT22;12307;50.828;6.080;2022-10-17T11:15:02;23.30;68.80
24144;DHT22;12307;50.828;6.080;2022-10-17T11:17:37;23.30;69.00
24144;DHT22;12307;50.828;6.080;2022-10-17T11:20:14;23.30;68.90
24144;DHT22;12307;50.828;6.080;2022-10-17T11:22:45;23.30;68.90
24144;DHT22;12307;50.828;6.080;2022-10-17T11:25:20;23.30;69.00
24144;DHT22;12307;50.828;6.080;2022-10-17T11:27:46;23.30;69.50
24144;DHT22;12307;50.828;6.080;2022-10-17T11:30:13;23.30;69.30
24144;DHT22;12307;50.828;6.080;2022-10-17T11:32:43;23.30;69.40
24144;DHT22;12307;50.828;6.080;2022-10-17T11:35:18;23.30;69.40
24144;DHT22;12307;50.828;6.080;2022-10-17T11:37:48;23.30;69.50
24144;DHT22;12307;50.828;6.080;2022-10-17T11:40:17;23.30;69.50
24144;DHT22;12307;50.828;6.080;2022-10-17T11:42:58;23.20;69.20
24144;DHT22;12307;50.828;6.080;2022-10-17T11:45:26;23.20;69.50
24144;DHT22;12307;50.828;6.080;2022-10-17T11:47:57;23.30;69.60
24144;DHT22;12307;50.828;6.080;2022-10-17T11:50:27;23.30;69.50
24144;DHT22;12307;50.828;6.080;2022-10-17T11:52:58;23.20;69.70
24144;DHT22;12307;50.828;6.080;2022-10-17T11:55:26;23.30;69.40
24144;DHT22;12307;50.828;6.080;2022-10-17T11:58:04;23.30;69.40
24144;DHT22;12307;50.828;6.080;2022-10-17T12:00:45;23.20;69.30
24144;DHT22;12307;50.828;6.080;2022-10-17T12:03:24;23.20;70.00
24144;DHT22;12307;50.828;6.080;2022-10-17T12:05:57;23.20;69.50
24144;DHT22;12307;50.828;6.080;2022-10-17T12:08:28;23.20;69.50
24144;DHT22;12307;50.828;6.080;2022-10-17T12:10:58;23.20;69.80
24144;DHT22;12307;50.828;6.080;2022-10-17T12:13:47;23.20;69.80
24144;DHT22;12307;50.828;6.080;2022-10-17T12:16:37;23.20;69.90
24144;DHT22;12307;50.828;6.080;2022-10-17T12:19:24;23.20;69.50
24144;DHT22;12307;50.828;6.080;2022-10-17T12:21:59;23.10;69.70
24144;DHT22;12307;50.828;6.080;2022-10-17T12:24:39;23.10;69.80
24144;DHT22;12307;50.828;6.080;2022-10-17T12:27:31;23.10;70.00
24144;DHT22;12307;50.828;6.080;2022-10-17T12:30:00;23.10;69.70
24144;DHT22;12307;50.828;6.080;2022-10-17T12:32:26;23.10;69.70
24144;DHT22;12307;50.828;6.080;2022-10-17T12:34:54;23.10;70.00
24144;DHT22;12307;50.828;6.080;2022-10-17T12:38:00;23.10;70.10
24144;DHT22;12307;50.828;6.080;2022-10-17T12:40:52;23.10;69.80
24144;DHT22;12307;50.828;6.080;2022-10-17T12:46:55;23.10;69.80
24144;DHT22;12307;50.828;6.080;2022-10-17T12:49:39;23.10;69.80
24144;DHT22;12307;50.828;6.080;2022-10-17T12:55:14;23.00;69.90
24144;DHT22;12307;50.828;6.080;2022-10-17T12:57:53;23.10;70.20
24144;DHT22;12307;50.828;6.080;2022-10-17T13:00:25;23.10;70.00
24144;DHT22;12307;50.828;6.080;2022-10-17T13:02:54;23.10;70.10
24144;DHT22;12307;50.828;6.080;2022-10-17T13:05:26;23.00;70.00
24144;DHT22;12307;50.828;6.080;2022-10-17T13:07:52;23.10;70.10
24144;DHT22;12307;50.828;6.080;2022-10-17T13:10:22;23.10;70.20
24144;DHT22;12307;50.828;6.080;2022-10-17T13:12:49;23.00;70.10
24144;DHT22;12307;50.828;6.080;2022-10-17T13:15:17;23.00;70.20
24144;DHT22;12307;50.828;6.080;2022-10-17T13:17:43;23.00;70.20
24144;DHT22;12307;50.828;6.080;2022-10-17T13:20:18;23.00;70.20
24144;DHT22;12307;50.828;6.080;2022-10-17T13:22:44;23.00;70.20
24144;DHT22;12307;50.828;6.080;2022-10-17T13:25:14;23.00;70.20
24144;DHT22;12307;50.828;6.080;2022-10-17T13:27:42;23.00;70.20
24144;DHT22;12307;50.828;6.080;2022-10-17T13:30:23;23.00;70.30
24144;DHT22;12307;50.828;6.080;2022-10-17T13:32:50;23.00;70.20
24144;DHT22;12307;50.828;6.080;2022-10-17T13:35:22;23.00;70.20
24144;DHT22;12307;50.828;6.080;2022-10-17T13:37:49;23.00;70.30
24144;DHT22;12307;50.828;6.080;2022-10-17T13:40:17;23.00;70.30
24144;DHT22;12307;50.828;6.080;2022-10-17T13:42:46;23.00;70.30
24144;DHT22;12307;50.828;6.080;2022-10-17T13:45:17;23.00;70.40
24144;DHT22;12307;50.828;6.080;2022-10-17T13:47:43;23.00;70.40
24144;DHT22;12307;50.828;6.080;2022-10-17T13:50:18;23.00;70.20
24144;DHT22;12307;50.828;6.080;2022-10-17T13:52:45;23.00;70.20
24144;DHT22;12307;50.828;6.080;2022-10-17T13:55:15;23.00;70.40
24144;DHT22;12307;50.828;6.080;2022-10-17T13:57:41;23.00;70.30
24144;DHT22;12307;50.828;6.080;2022-10-17T14:00:16;23.00;70.40
24144;DHT22;12307;50.828;6.080;2022-10-17T14:02:42;23.00;70.10
24144;DHT22;12307;50.828;6.080;2022-10-17T14:05:11;23.00;70.20
24144;DHT22;12307;50.828;6.080;2022-10-17T14:07:40;23.00;70.10
24144;DHT22;12307;50.828;6.080;2022-10-17T14:10:17;23.00;70.20
24144;DHT22;12307;50.828;6.080;2022-10-17T14:12:43;23.00;70.30
24144;DHT22;12307;50.828;6.080;2022-10-17T14:15:12;23.00;70.30
24144;DHT22;12307;50.828;6.080;2022-10-17T14:17:39;23.00;70.20
24144;DHT22;12307;50.828;6.080;2022-10-17T14:20:05;23.00;70.20
24144;DHT22;12307;50.828;6.080;2022-10-17T14:22:34;23.00;70.20
24144;DHT22;12307;50.828;6.080;2022-10-17T14:25:01;23.00;70.20
24144;DHT22;12307;50.828;6.080;2022-10-17T14:27:29;23.00;70.30
24144;DHT22;12307;50.828;6.080;2022-10-17T14:29:56;23.00;70.30
24144;DHT22;12307;50.828;6.080;2022-10-17T14:32:27;23.00;70.30
24144;DHT22;12307;50.828;6.080;2022-10-17T14:34:54;23.00;70.50
24144;DHT22;12307;50.828;6.080;2022-10-17T14:37:29;23.00;70.50
24144;DHT22;12307;50.828;6.080;2022-10-17T14:39:58;23.00;70.40
24144;DHT22;12307;50.828;6.080;2022-10-17T14:42:25;23.00;70.50
24144;DHT22;12307;50.828;6.080;2022-10-17T14:44:53;22.90;70.40
24144;DHT22;12307;50.828;6.080;2022-10-17T14:47:21;22.90;70.50
24144;DHT22;12307;50.828;6.080;2022-10-17T14:50:00;23.00;70.50
24144;DHT22;12307;50.828;6.080;2022-10-17T14:52:29;22.90;70.50
24144;DHT22;12307;50.828;6.080;2022-10-17T14:54:56;22.90;70.40
24144;DHT22;12307;50.828;6.080;2022-10-17T14:57:26;22.90;70.50
24144;DHT22;12307;50.828;6.080;2022-10-17T14:59:53;22.90;70.50
24144;DHT22;12307;50.828;6.080;2022-10-17T15:02:19;22.90;71.30
24144;DHT22;12307;50.828;6.080;2022-10-17T15:04:45;22.90;70.50
24144;DHT22;12307;50.828;6.080;2022-10-17T15:07:16;22.90;70.50
24144;DHT22;12307;50.828;6.080;2022-10-17T15:09:43;22.90;70.50
24144;DHT22;12307;50.828;6.080;2022-10-17T15:12:17;22.90;70.50
24144;DHT22;12307;50.828;6.080;2022-10-17T15:14:43;22.90;70.50
24144;DHT22;12307;50.828;6.080;2022-10-17T15:17:12;22.90;70.50
24144;DHT22;12307;50.828;6.080;2022-10-17T15:19:38;22.90;70.50
24144;DHT22;12307;50.828;6.080;2022-10-17T15:22:04;22.90;70.40
24144;DHT22;12307;50.828;6.080;2022-10-17T15:24:31;22.90;70.40
24144;DHT22;12307;50.828;6.080;2022-10-17T15:26:56;22.80;70.30
24144;DHT22;12307;50.828;6.080;2022-10-17T15:29:22;22.80;70.40
24144;DHT22;12307;50.828;6.080;2022-10-17T15:31:48;22.80;70.30
24144;DHT22;12307;50.828;6.080;2022-10-17T15:34:13;22.80;70.30
24144;DHT22;12307;50.828;6.080;2022-10-17T15:36:40;22.80;70.50
24144;DHT22;12307;50.828;6.080;2022-10-17T15:39:08;22.80;70.40
24144;DHT22;12307;50.828;6.080;2022-10-17T15:41:35;22.80;70.50
24144;DHT22;12307;50.828;6.080;2022-10-17T15:44:01;22.80;70.50
24144;DHT22;12307;50.828;6.080;2022-10-17T15:46:28;22.80;70.50
24144;DHT22;12307;50.828;6.080;2022-10-17T15:48:55;22.80;70.50
24144;DHT22;12307;50.828;6.080;2022-10-17T15:51:21;22.80;70.50
24144;DHT22;12307;50.828;6.080;2022-10-17T15:53:47;22.80;70.50